Newport, Indiana
Current Conditions -  °F | °C
As of 9:35 PM on Sunday 23 Nov 2014 (Local Time) from KPRG Reporting Station
Moderate Rain Moderate Rain  
Wind Chill: 11°   Ceiling: 1100
Heat Index: 11°   Visibility: 7mi
Dew Point: 11°   Wind: 5mph
Humidity: 100%   Direction: 140°SE
Pressure: 29.21"   Gusts: NA
Location:  39.88°N, 87.41°W
Report Text: KPRG 240235Z AUTO 14004KT 7SM RA SCT005 BKN011 OVC024 11/11 A2921 RMK AO2 P0006 T01120112
Loading
Personal Weather Stations






























Interactive Weather Map New forecast layout! Learn more

10-Day Weather Forecast

Advertisements
Track Severe Weather on mobile